Time;durP1;ratioP1;P1;durP2;ratioP2;P2;SDS_P1;SDS_P2;PMS_P1;PMS_P2;Temp;Humidity;BMP_temperature;BMP_pressure;BME280_temperature;BME280_humidity;BME280_pressure;Samples;Min_cycle;Max_cycle;Signal;HPM_P1;HPM_P2
2022/06/23 00:01:59;;;;;;;3.10;2.55;;;14.90;99.90;;;;;;5065070;28;20237;-64
2022/06/23 00:04:30;;;;;;;3.63;2.78;;;14.70;99.90;;;;;;5065892;28;20066;-64
2022/06/23 00:07:02;;;;;;;3.15;2.88;;;14.70;99.90;;;;;;5065263;28;20102;-64
2022/06/23 00:09:41;;;;;;;3.53;3.10;;;14.60;99.90;;;;;;5065671;28;20044;-64
2022/06/23 00:12:19;;;;;;;2.95;2.70;;;14.60;99.90;;;;;;5067779;28;20143;-64
2022/06/23 00:14:52;;;;;;;4.18;2.60;;;14.60;99.90;;;;;;5069250;28;20067;-64
2022/06/23 00:17:33;;;;;;;3.47;3.17;;;14.60;99.90;;;;;;5069768;28;20033;-64
2022/06/23 00:20:06;;;;;;;3.72;3.42;;;14.60;99.90;;;;;;5068489;28;20102;-64
2022/06/23 00:22:32;;;;;;;3.38;3.08;;;14.50;99.90;;;;;;5069875;28;20460;-64
2022/06/23 00:25:01;;;;;;;3.42;3.13;;;14.50;99.90;;;;;;5069090;28;20431;-64
2022/06/23 00:27:30;;;;;;;3.08;2.88;;;14.40;99.90;;;;;;5068398;28;20082;-63
2022/06/23 00:30:00;;;;;;;3.80;3.08;;;14.40;99.90;;;;;;5069277;28;20051;-64
2022/06/23 00:32:29;;;;;;;3.47;3.17;;;14.40;99.90;;;;;;5069749;28;20044;-64
2022/06/23 00:35:00;;;;;;;3.55;3.25;;;14.30;99.90;;;;;;5068546;28;20131;-64
2022/06/23 00:37:28;;;;;;;2.90;2.70;;;14.30;99.90;;;;;;5069494;28;20041;-64
2022/06/23 00:40:05;;;;;;;3.17;2.63;;;14.30;99.90;;;;;;5068538;28;20502;-64
2022/06/23 00:42:33;;;;;;;4.22;3.40;;;14.30;99.90;;;;;;5069231;28;20499;-63
2022/06/23 00:45:10;;;;;;;4.10;3.63;;;14.20;99.90;;;;;;5068756;28;20507;-64
2022/06/23 00:47:43;;;;;;;3.58;3.15;;;14.30;99.90;;;;;;5068025;28;20040;-64
2022/06/23 00:50:35;;;;;;;3.45;3.15;;;14.30;99.90;;;;;;5068521;28;20045;-64
2022/06/23 00:53:13;;;;;;;6.63;3.97;;;14.30;99.90;;;;;;5067742;28;20048;-64
2022/06/23 00:56:19;;;;;;;11.32;4.20;;;14.20;99.90;;;;;;5067884;28;20143;-64
2022/06/23 00:58:56;;;;;;;4.22;3.83;;;14.20;99.90;;;;;;5038331;28;20102;-64
2022/06/23 01:01:41;;;;;;;4.55;3.95;;;14.10;99.90;;;;;;5068451;28;20048;-64
2022/06/23 01:04:28;;;;;;;3.88;3.58;;;14.10;99.90;;;;;;5068367;28;20048;-64
2022/06/23 01:07:12;;;;;;;4.53;4.07;;;14.00;99.90;;;;;;5068910;28;20491;-63
2022/06/23 01:09:44;;;;;;;4.10;3.80;;;14.00;99.90;;;;;;5067918;28;20540;-64
2022/06/23 01:12:22;;;;;;;;;;;14.00;99.90;;;;;;5068766;28;20036;-64
2022/06/23 01:14:56;;;;;;;3.88;3.58;;;13.90;99.90;;;;;;5068218;28;20015;-64
2022/06/23 01:17:33;;;;;;;3.80;3.47;;;13.90;99.90;;;;;;5067946;28;20097;-64
2022/06/23 01:20:07;;;;;;;5.05;3.83;;;13.90;99.90;;;;;;5068217;28;20479;-64
2022/06/23 01:22:54;;;;;;;4.70;4.20;;;13.90;99.90;;;;;;5067359;28;20649;-64
2022/06/23 01:25:51;;;;;;;4.45;4.05;;;14.00;99.90;;;;;;5068173;28;20059;-64
2022/06/23 01:28:23;;;;;;;7.35;4.25;;;13.90;99.90;;;;;;5068268;28;20411;-64
2022/06/23 01:30:54;;;;;;;6.53;5.05;;;13.80;99.90;;;;;;5067255;28;20119;-64
2022/06/23 01:33:44;;;;;;;4.72;4.32;;;13.80;99.90;;;;;;5066803;28;20048;-65
2022/06/23 01:36:28;;;;;;;4.53;4.22;;;13.80;99.90;;;;;;5067252;28;20492;-64
2022/06/23 01:39:11;;;;;;;4.47;4.07;;;13.80;99.90;;;;;;5068134;28;20367;-64
2022/06/23 01:41:45;;;;;;;4.57;4.18;;;13.70;99.90;;;;;;5068027;28;20036;-64
2022/06/23 01:44:18;;;;;;;4.72;4.32;;;13.70;99.90;;;;;;5067177;28;20049;-64
2022/06/23 01:46:50;;;;;;;4.80;4.40;;;13.70;99.90;;;;;;5068041;28;20090;-64
2022/06/23 01:49:31;;;;;;;4.88;4.28;;;13.80;99.90;;;;;;5068129;28;20048;-64
2022/06/23 01:52:10;;;;;;;5.07;4.40;;;13.80;99.90;;;;;;5066772;28;20055;-64
2022/06/23 01:54:38;;;;;;;5.10;4.60;;;13.80;99.90;;;;;;5067490;28;20052;-64
2022/06/23 01:57:20;;;;;;;6.13;4.93;;;13.70;99.90;;;;;;5067625;28;20388;-64
2022/06/23 02:00:14;;;;;;;4.93;4.57;;;13.80;99.90;;;;;;5066157;28;20127;-64
2022/06/23 02:02:58;;;;;;;5.53;5.03;;;13.70;99.90;;;;;;5057007;28;20052;-64
2022/06/23 02:05:43;;;;;;;4.75;4.35;;;13.70;99.90;;;;;;5066897;28;20040;-64
2022/06/23 02:08:46;;;;;;;5.70;5.20;;;13.70;99.90;;;;;;5067153;28;20491;-64
2022/06/23 02:11:18;;;;;;;4.80;4.40;;;13.70;99.90;;;;;;5067446;28;20040;-64
2022/06/23 02:14:17;;;;;;;4.88;4.47;;;13.70;99.90;;;;;;5066566;28;20048;-63
2022/06/23 02:17:10;;;;;;;4.85;4.13;;;13.70;99.90;;;;;;5067415;28;20056;-64
2022/06/23 02:19:51;;;;;;;5.85;5.20;;;13.70;99.90;;;;;;5065155;28;20443;-64
2022/06/23 02:22:40;;;;;;;4.88;4.45;;;13.70;99.90;;;;;;5067537;28;20047;-64
2022/06/23 02:25:30;;;;;;;5.22;4.78;;;13.70;99.90;;;;;;5066833;28;20047;-64
2022/06/23 02:28:14;;;;;;;5.30;4.85;;;13.70;99.90;;;;;;5066882;28;20529;-64
2022/06/23 02:30:47;;;;;;;5.20;4.70;;;13.70;99.90;;;;;;5067085;28;20106;-64
2022/06/23 02:33:29;;;;;;;5.82;4.88;;;13.70;99.90;;;;;;5065756;28;20044;-64
2022/06/23 02:36:12;;;;;;;6.93;5.20;;;13.60;99.90;;;;;;5066920;28;20044;-64
2022/06/23 02:38:58;;;;;;;5.57;5.07;;;13.60;99.90;;;;;;5066708;28;20048;-64
2022/06/23 02:41:41;;;;;;;4.70;4.30;;;13.60;99.90;;;;;;5065037;28;20037;-64
2022/06/23 02:44:18;;;;;;;5.63;5.13;;;13.60;99.90;;;;;;5066463;28;20044;-64
2022/06/23 02:47:18;;;;;;;7.57;5.22;;;13.50;99.90;;;;;;5066051;28;20120;-64
2022/06/23 02:50:16;;;;;;;5.38;4.88;;;13.50;99.90;;;;;;5067015;28;20052;-64
2022/06/23 02:52:56;;;;;;;6.20;5.60;;;13.60;99.90;;;;;;5066560;28;20058;-64
2022/06/23 02:55:59;;;;;;;6.35;4.18;;;13.60;99.90;;;;;;5064798;28;20056;-64
2022/06/23 02:58:27;;;;;;;5.65;5.15;;;13.50;99.90;;;;;;5066766;28;20537;-64
2022/06/23 03:01:09;;;;;;;6.30;5.70;;;13.50;99.90;;;;;;5066077;28;20044;-64
2022/06/23 03:04:00;;;;;;;7.15;6.28;;;13.50;99.90;;;;;;5066883;28;20059;-64
2022/06/23 03:06:43;;;;;;;6.45;5.63;;;13.50;99.90;;;;;;5066899;28;20057;-64
2022/06/23 03:09:13;;;;;;;7.13;6.43;;;13.50;99.90;;;;;;5065449;28;20040;-64
2022/06/23 03:12:08;;;;;;;6.80;6.07;;;13.50;99.90;;;;;;5066270;28;20072;-64
2022/06/23 03:14:56;;;;;;;5.82;5.28;;;13.50;99.90;;;;;;5066708;28;20105;-64
2022/06/23 03:17:34;;;;;;;5.90;5.30;;;13.40;99.90;;;;;;5066921;28;20048;-64
2022/06/23 03:20:14;;;;;;;6.25;5.65;;;13.40;99.90;;;;;;5065603;28;20098;-64
2022/06/23 03:22:56;;;;;;;6.50;5.90;;;13.40;99.90;;;;;;5064281;28;20097;-64
2022/06/23 03:25:45;;;;;;;6.38;5.78;;;13.40;99.90;;;;;;5066452;28;20052;-64
2022/06/23 03:28:38;;;;;;;5.82;5.32;;;13.30;99.90;;;;;;5066495;28;20052;-64
2022/06/23 03:31:11;;;;;;;6.38;5.75;;;13.30;99.90;;;;;;5065651;28;20048;-64
2022/06/23 03:33:46;;;;;;;6.05;5.55;;;13.30;99.90;;;;;;5064585;28;20051;-64
2022/06/23 03:36:24;;;;;;;6.35;5.65;;;13.30;99.90;;;;;;5065495;28;20036;-64
2022/06/23 03:42:14;;;;;;;5.95;5.45;;;13.30;99.90;;;;;;5065961;28;20044;-64
2022/06/23 03:45:03;;;;;;;6.32;5.72;;;13.30;99.90;;;;;;5065302;28;20052;-64
2022/06/23 03:47:44;;;;;;;7.45;6.20;;;13.20;99.90;;;;;;5065705;28;20041;-64
2022/06/23 03:50:29;;;;;;;6.57;5.87;;;13.20;99.90;;;;;;5064927;28;20099;-64
2022/06/23 03:52:56;;;;;;;6.43;5.82;;;13.30;99.90;;;;;;5065521;28;20370;-63
2022/06/23 03:55:30;;;;;;;5.78;5.28;;;13.30;99.90;;;;;;5065924;28;20106;-64
2022/06/23 03:58:03;;;;;;;10.32;6.38;;;13.30;99.90;;;;;;5063682;28;20105;-63
2022/06/23 04:00:36;;;;;;;6.63;6.00;;;13.30;99.90;;;;;;5065769;28;20053;-63
2022/06/23 04:03:11;;;;;;;7.80;5.68;;;13.30;99.90;;;;;;5065678;28;20127;-63
2022/06/23 04:05:55;;;;;;;6.63;5.93;;;13.40;99.90;;;;;;5064831;28;20050;-63
2022/06/23 04:08:26;;;;;;;7.20;6.50;;;13.40;99.90;;;;;;5065585;28;20045;-63
2022/06/23 04:10:54;;;;;;;6.05;5.45;;;13.40;99.90;;;;;;5065936;28;20131;-63
2022/06/23 04:13:30;;;;;;;6.18;5.68;;;13.40;99.90;;;;;;5064279;28;20365;-63
2022/06/23 04:16:03;;;;;;;6.43;5.82;;;13.40;99.90;;;;;;5065775;28;20746;-63
2022/06/23 04:18:31;;;;;;;6.40;5.80;;;13.40;99.90;;;;;;5064702;28;20041;-64
2022/06/23 04:21:07;;;;;;;6.38;5.78;;;13.50;99.90;;;;;;5065270;28;20036;-63
2022/06/23 04:23:38;;;;;;;6.35;5.68;;;13.50;99.90;;;;;;5065790;28;20483;-63
2022/06/23 04:26:14;;;;;;;6.28;5.68;;;13.60;99.90;;;;;;5064979;28;20036;-64
2022/06/23 04:28:49;;;;;;;7.60;6.18;;;13.60;99.90;;;;;;5065457;28;20053;-63
2022/06/23 04:31:40;;;;;;;6.28;5.68;;;13.60;99.90;;;;;;5065387;28;20048;-64
2022/06/23 04:34:13;;;;;;;5.90;5.40;;;13.70;99.90;;;;;;5056033;28;20140;-63
2022/06/23 04:36:43;;;;;;;6.63;5.75;;;13.70;99.90;;;;;;5065533;28;20094;-64
2022/06/23 04:39:35;;;;;;;6.22;5.63;;;13.80;99.90;;;;;;5064237;28;20059;-63
2022/06/23 04:42:19;;;;;;;7.07;6.38;;;13.80;99.90;;;;;;5065376;28;20105;-64
2022/06/23 04:44:48;;;;;;;6.57;5.57;;;13.90;99.90;;;;;;5065446;28;20048;-63
2022/06/23 04:47:22;;;;;;;7.78;5.20;;;13.90;99.90;;;;;;5064700;28;20407;-63
2022/06/23 04:49:53;;;;;;;8.27;6.43;;;14.00;99.90;;;;;;5064936;28;20033;-64
2022/06/23 04:52:27;;;;;;;7.43;6.75;;;14.00;99.90;;;;;;5065097;28;20491;-63
2022/06/23 04:55:01;;;;;;;6.85;6.15;;;14.10;99.90;;;;;;5064507;28;20048;-63
2022/06/23 04:57:40;;;;;;;6.70;6.07;;;14.20;99.90;;;;;;5066871;28;20053;-64
2022/06/23 05:00:06;;;;;;;7.03;5.93;;;14.30;99.90;;;;;;5068407;28;20048;-64
2022/06/23 05:02:53;;;;;;;6.93;6.13;;;14.30;99.90;;;;;;5068478;28;20040;-64
2022/06/23 05:05:29;;;;;;;7.45;6.45;;;14.40;99.90;;;;;;5068894;28;20251;-64
2022/06/23 05:08:03;;;;;;;7.75;6.20;;;14.40;99.90;;;;;;5066888;28;20569;-64
2022/06/23 05:10:33;;;;;;;8.63;7.15;;;14.50;99.90;;;;;;5068599;28;20127;-64
2022/06/23 05:13:03;;;;;;;7.28;6.57;;;14.50;99.90;;;;;;5068554;28;20120;-64
2022/06/23 05:15:43;;;;;;;6.95;5.82;;;14.60;99.90;;;;;;5068177;28;20091;-63
2022/06/23 05:18:16;;;;;;;7.00;6.32;;;14.60;99.90;;;;;;5066954;28;20137;-63
2022/06/23 05:20:49;;;;;;;6.60;6.00;;;14.80;99.90;;;;;;5068209;28;20052;-64
2022/06/23 05:23:19;;;;;;;9.40;6.97;;;15.40;99.90;;;;;;5067784;28;20055;-64
2022/06/23 05:25:47;;;;;;;9.50;7.15;;;14.70;99.90;;;;;;5068428;28;20063;-63
2022/06/23 05:28:21;;;;;;;8.40;7.50;;;14.80;99.90;;;;;;5068554;28;20048;-64
2022/06/23 05:30:55;;;;;;;10.35;7.75;;;14.90;99.90;;;;;;5067776;28;20458;-64
2022/06/23 05:33:25;;;;;;;8.75;7.85;;;14.90;99.90;;;;;;5068139;28;20511;-64
2022/06/23 05:36:03;;;;;;;9.98;8.10;;;15.00;99.90;;;;;;5067028;28;20063;-64
2022/06/23 05:38:48;;;;;;;10.40;8.07;;;15.10;99.90;;;;;;5068089;28;20047;-63
2022/06/23 05:41:20;;;;;;;10.65;8.35;;;15.20;99.90;;;;;;5050366;28;20565;-64
2022/06/23 05:43:49;;;;;;;8.00;7.20;;;15.20;99.90;;;;;;5066950;28;20059;-64
2022/06/23 05:46:20;;;;;;;7.90;6.70;;;15.30;99.90;;;;;;5067790;28;20044;-64
2022/06/23 05:48:59;;;;;;;8.50;7.60;;;15.40;99.90;;;;;;5067772;28;20041;-64
2022/06/23 05:51:47;;;;;;;8.13;7.43;;;15.40;99.90;;;;;;5067342;28;20261;-63
2022/06/23 05:54:53;;;;;;;9.70;7.13;;;15.50;99.90;;;;;;5067838;28;20044;-64
2022/06/23 05:57:24;;;;;;;10.23;7.15;;;15.60;99.90;;;;;;5012212;28;20058;-63
2022/06/23 06:00:24;;;;;;;7.80;7.05;;;15.60;99.90;;;;;;5067158;28;20349;-64
2022/06/23 06:03:01;;;;;;;7.65;6.95;;;15.70;99.90;;;;;;5034343;28;20165;-64
2022/06/23 06:05:35;;;;;;;7.65;6.95;;;15.80;99.90;;;;;;5066817;28;20475;-64
2022/06/23 06:08:10;;;;;;;9.45;8.07;;;15.90;99.90;;;;;;5066543;28;20051;-64
2022/06/23 06:10:36;;;;;;;8.80;7.70;;;15.90;99.90;;;;;;5066844;28;20127;-64
2022/06/23 06:13:06;;;;;;;9.70;7.25;;;16.00;99.90;;;;;;5067235;28;20043;-64
2022/06/23 06:15:37;;;;;;;8.18;7.35;;;16.10;99.90;;;;;;5067412;28;20067;-64
2022/06/23 06:18:32;;;;;;;9.25;7.60;;;16.10;99.90;;;;;;5066647;28;20052;-63
2022/06/23 06:21:01;;;;;;;9.23;7.82;;;16.20;99.90;;;;;;5053666;28;20052;-63
2022/06/23 06:23:42;;;;;;;9.30;7.38;;;16.20;99.90;;;;;;5067044;28;20045;-64
2022/06/23 06:26:12;;;;;;;8.93;7.68;;;16.30;99.90;;;;;;5066073;28;20097;-64
2022/06/23 06:28:38;;;;;;;9.75;7.40;;;16.40;99.90;;;;;;5067081;28;20044;-64
2022/06/23 06:31:24;;;;;;;8.38;7.57;;;16.50;99.90;;;;;;5066830;28;20482;-64
2022/06/23 06:34:06;;;;;;;9.27;7.20;;;16.50;99.90;;;;;;5034068;28;20049;-63
2022/06/23 06:36:41;;;;;;;10.38;7.65;;;16.60;99.90;;;;;;5065596;28;20052;-64
2022/06/23 06:39:29;;;;;;;11.15;8.50;;;16.70;99.90;;;;;;5065753;28;20098;-64
2022/06/23 06:42:05;;;;;;;12.02;7.55;;;16.80;99.90;;;;;;5065596;28;20095;-64
2022/06/23 06:44:32;;;;;;;10.32;8.13;;;16.80;99.90;;;;;;5067072;28;20049;-64
2022/06/23 06:46:59;;;;;;;8.70;7.72;;;16.90;99.90;;;;;;5065772;28;20041;-64
2022/06/23 06:49:28;;;;;;;8.50;7.68;;;17.20;99.90;;;;;;5066919;28;20563;-64
2022/06/23 06:51:55;;;;;;;8.75;7.85;;;17.00;99.90;;;;;;5066607;28;20372;-63
2022/06/23 06:54:44;;;;;;;11.80;7.95;;;17.10;99.90;;;;;;5066063;28;20518;-64
2022/06/23 06:57:16;;;;;;;14.73;7.40;;;17.20;99.90;;;;;;5066059;28;20105;-64
2022/06/23 06:59:56;;;;;;;8.90;7.38;;;17.30;99.90;;;;;;5065762;28;20492;-63
2022/06/23 07:02:34;;;;;;;10.43;8.02;;;17.40;99.90;;;;;;5066760;28;20041;-63
2022/06/23 07:05:18;;;;;;;10.75;7.38;;;17.50;99.90;;;;;;5065986;28;20463;-62
2022/06/23 07:07:49;;;;;;;8.50;7.05;;;17.60;99.90;;;;;;5065621;28;20044;-63
2022/06/23 07:10:36;;;;;;;11.10;7.85;;;17.70;99.90;;;;;;5066340;28;20045;-63
2022/06/23 07:13:08;;;;;;;10.00;8.00;;;17.80;99.90;;;;;;5066125;28;20049;-63
2022/06/23 07:15:59;;;;;;;8.35;7.53;;;17.90;99.90;;;;;;5065798;28;20460;-63
2022/06/23 07:18:28;;;;;;;9.02;8.20;;;18.00;99.90;;;;;;5066586;28;20047;-63
2022/06/23 07:21:17;;;;;;;8.48;7.63;;;18.00;99.90;;;;;;5064774;28;20044;-63
2022/06/23 07:23:54;;;;;;;9.60;7.88;;;18.20;99.90;;;;;;5066016;28;20558;-63
2022/06/23 07:26:20;;;;;;;9.48;7.13;;;18.30;99.90;;;;;;5066141;28;20559;-63
2022/06/23 07:28:52;;;;;;;7.57;6.85;;;18.40;99.90;;;;;;5064969;28;20120;-63
2022/06/23 07:31:23;;;;;;;10.35;6.40;;;18.50;99.90;;;;;;5065907;28;20115;-63
2022/06/23 07:34:04;;;;;;;8.68;5.93;;;18.70;99.90;;;;;;5065546;28;20045;-63
2022/06/23 07:36:41;;;;;;;8.10;6.43;;;18.80;99.90;;;;;;5065274;28;20060;-63
2022/06/23 07:39:22;;;;;;;8.15;6.38;;;19.00;99.90;;;;;;5065966;28;20045;-63
2022/06/23 07:42:03;;;;;;;11.07;5.85;;;19.00;99.90;;;;;;5065459;28;20048;-63
2022/06/23 07:44:32;;;;;;;7.22;5.68;;;19.10;99.90;;;;;;5065746;28;20048;-63
2022/06/23 07:46:58;;;;;;;10.30;4.88;;;19.20;99.90;;;;;;5064358;28;20041;-63
2022/06/23 07:49:25;;;;;;;10.80;5.60;;;19.40;99.90;;;;;;5065325;28;20373;-63
2022/06/23 07:51:52;;;;;;;8.48;6.53;;;19.40;99.90;;;;;;5065678;28;20103;-63
2022/06/23 07:54:20;;;;;;;6.43;5.90;;;19.50;99.90;;;;;;5065969;28;20115;-63
2022/06/23 07:56:47;;;;;;;7.97;5.80;;;19.60;99.90;;;;;;5064469;28;20506;-63
2022/06/23 07:59:17;;;;;;;7.13;5.20;;;19.70;99.90;;;;;;5065707;28;20055;-63
2022/06/23 08:02:00;;;;;;;7.72;5.97;;;19.80;99.90;;;;;;5065640;28;20076;-65
2022/06/23 08:04:36;;;;;;;6.80;4.93;;;19.90;99.90;;;;;;5065396;28;20040;-63
2022/06/23 08:07:05;;;;;;;7.85;5.38;;;20.00;99.90;;;;;;5064541;28;20127;-63
2022/06/23 08:09:48;;;;;;;9.07;5.15;;;20.20;99.90;;;;;;5066385;28;20040;-63
2022/06/23 08:18:10;;;;;;;8.23;4.80;;;20.40;99.90;;;;;;5064600;28;20503;-63
2022/06/23 08:20:41;;;;;;;5.22;4.50;;;20.60;99.90;;;;;;5065690;28;20412;-64
2022/06/23 08:23:10;;;;;;;6.07;5.23;;;20.90;99.90;;;;;;5063738;28;20044;-64
2022/06/23 08:25:36;;;;;;;6.72;5.30;;;20.70;99.90;;;;;;5063520;28;20067;-63
2022/06/23 08:28:05;;;;;;;5.97;4.70;;;20.80;99.90;;;;;;5065313;28;20032;-63
2022/06/23 08:30:36;;;;;;;7.22;5.68;;;20.80;99.90;;;;;;5064414;28;20080;-64
2022/06/23 08:33:03;;;;;;;7.70;5.50;;;21.10;99.90;;;;;;5066278;28;20315;-63
2022/06/23 08:35:40;;;;;;;6.47;5.70;;;21.00;99.90;;;;;;5069417;28;20041;-63
2022/06/23 08:38:32;;;;;;;8.57;4.75;;;21.10;99.90;;;;;;5069005;28;20059;-63
2022/06/23 08:41:16;;;;;;;;;;;21.10;99.90;;;;;;5069157;28;20491;-63
2022/06/23 08:44:00;;;;;;;7.20;4.80;;;21.20;99.90;;;;;;5067569;28;20180;-63
2022/06/23 08:46:51;;;;;;;8.02;5.07;;;21.30;99.90;;;;;;5068660;28;20084;-64
2022/06/23 08:49:24;;;;;;;5.07;4.43;;;21.40;99.90;;;;;;5069020;28;20052;-63
2022/06/23 08:52:09;;;;;;;9.18;4.53;;;21.50;99.90;;;;;;5068567;28;20091;-63
2022/06/23 08:54:59;;;;;;;8.52;4.30;;;21.60;99.90;;;;;;5067240;28;20419;-63
2022/06/23 08:57:32;;;;;;;5.00;4.50;;;21.70;99.90;;;;;;5068708;28;20554;-64
2022/06/23 09:00:08;;;;;;;4.40;4.00;;;21.80;99.90;;;;;;5067631;28;20107;-63
2022/06/23 09:03:05;;;;;;;4.63;3.90;;;21.90;99.90;;;;;;5069208;28;20095;-63
2022/06/23 09:05:37;;;;;;;6.70;3.78;;;22.00;99.90;;;;;;5068843;28;20040;-64
2022/06/23 09:08:53;;;;;;;8.18;3.65;;;22.20;99.90;;;;;;5067884;28;20090;-64
2022/06/23 09:11:27;;;;;;;4.03;3.55;;;22.30;99.90;;;;;;5006296;28;20050;-64
2022/06/23 09:14:13;;;;;;;6.50;3.88;;;22.40;99.90;;;;;;5005351;28;20121;-63
2022/06/23 09:17:05;;;;;;;7.22;3.50;;;22.50;99.90;;;;;;5052274;28;20511;-63
2022/06/23 09:19:44;;;;;;;4.07;3.67;;;22.70;99.90;;;;;;5044846;28;20056;-64
2022/06/23 09:22:30;;;;;;;5.32;3.55;;;22.70;99.90;;;;;;5067392;28;20048;-63
2022/06/23 09:25:06;;;;;;;4.20;3.75;;;22.80;99.90;;;;;;5068064;28;20052;-63
2022/06/23 09:27:53;;;;;;;3.70;3.40;;;22.90;99.90;;;;;;5068048;28;20044;-63
2022/06/23 09:30:36;;;;;;;3.45;3.15;;;23.00;99.90;;;;;;5068155;28;20459;-63
2022/06/23 09:33:05;;;;;;;5.13;2.90;;;23.10;99.90;;;;;;5068105;28;20045;-63
2022/06/23 09:36:07;;;;;;;3.78;3.15;;;23.20;99.90;;;;;;5067712;28;20051;-63
2022/06/23 09:39:00;;;;;;;5.93;3.45;;;23.30;99.90;;;;;;5068442;28;20044;-64
2022/06/23 09:41:49;;;;;;;5.68;3.45;;;23.40;99.90;;;;;;5067851;28;20048;-64
2022/06/23 09:44:36;;;;;;;4.57;2.85;;;23.50;99.90;;;;;;5066785;28;20391;-63
2022/06/23 09:48:00;;;;;;;5.10;2.80;;;23.50;99.90;;;;;;5067956;28;20041;-63
2022/06/23 09:50:31;;;;;;;3.42;2.50;;;23.60;99.90;;;;;;5004902;28;20319;-64
2022/06/23 09:53:24;;;;;;;6.53;2.83;;;23.70;99.90;;;;;;4989284;28;20089;-63
2022/06/23 09:56:07;;;;;;;17.80;3.00;;;23.70;99.90;;;;;;5046684;28;20048;-63
2022/06/23 09:58:52;;;;;;;6.18;3.10;;;23.80;99.90;;;;;;5067933;28;20060;-64
2022/06/23 10:01:46;;;;;;;3.67;2.83;;;23.90;99.90;;;;;;5067632;28;20059;-64
2022/06/23 10:04:46;;;;;;;3.80;3.10;;;24.00;99.90;;;;;;5066942;28;20511;-63
2022/06/23 10:07:14;;;;;;;3.60;2.15;;;24.20;99.90;;;;;;5067851;28;20044;-63
2022/06/23 10:09:47;;;;;;;3.33;2.80;;;24.20;99.90;;;;;;5066852;28;20384;-63
2022/06/23 10:12:49;;;;;;;5.70;2.55;;;24.40;99.90;;;;;;5067483;28;20107;-63
2022/06/23 10:15:39;;;;;;;3.75;2.47;;;24.40;99.90;;;;;;5067542;28;20037;-63
2022/06/23 10:18:14;;;;;;;7.90;2.30;;;24.50;99.90;;;;;;5066803;28;20137;-64
2022/06/23 10:20:58;;;;;;;5.10;2.22;;;24.50;99.90;;;;;;5067731;28;20131;-64
2022/06/23 10:23:33;;;;;;;2.53;2.20;;;24.60;99.90;;;;;;5067326;28;20041;-64
2022/06/23 10:26:29;;;;;;;2.92;1.90;;;24.60;99.90;;;;;;5066180;28;20474;-63
2022/06/23 10:29:12;;;;;;;5.00;2.10;;;24.70;99.90;;;;;;5067047;28;20382;-64
2022/06/23 10:31:49;;;;;;;5.47;1.92;;;24.90;99.90;;;;;;5066093;28;20072;-64
2022/06/23 10:34:47;;;;;;;2.72;2.30;;;25.10;99.90;;;;;;5067028;28;20186;-63
2022/06/23 10:37:58;;;;;;;2.10;1.90;;;25.20;99.90;;;;;;5066856;28;20055;-63
2022/06/23 10:40:36;;;;;;;4.80;1.70;;;25.20;99.90;;;;;;5067267;28;20044;-63
2022/06/23 10:43:16;;;;;;;6.38;1.70;;;25.30;99.90;;;;;;5066709;28;20332;-64
2022/06/23 10:45:43;;;;;;;4.13;1.67;;;25.40;99.90;;;;;;5066017;28;20127;-64
2022/06/23 10:48:40;;;;;;;6.07;2.42;;;25.50;99.90;;;;;;5066329;28;20060;-63
2022/06/23 10:51:14;;;;;;;2.20;2.00;;;25.60;95.80;;;;;;5066645;28;20821;-63
2022/06/23 10:53:54;;;;;;;2.40;2.20;;;25.70;97.60;;;;;;5065859;28;20049;-64
2022/06/23 10:56:39;;;;;;;3.53;1.63;;;25.80;95.30;;;;;;5066618;28;20056;-63
2022/06/23 10:59:35;;;;;;;2.58;1.63;;;25.90;95.60;;;;;;5065741;28;20162;-64
2022/06/23 11:02:27;;;;;;;4.30;1.85;;;26.00;92.20;;;;;;5066458;28;20048;-63
2022/06/23 11:05:21;;;;;;;13.73;2.30;;;26.10;94.30;;;;;;5066555;28;20044;-63
2022/06/23 11:08:24;;;;;;;8.48;1.70;;;26.20;92.30;;;;;;5064988;28;20646;-63
2022/06/23 11:10:58;;;;;;;3.58;1.70;;;26.30;90.50;;;;;;5066087;28;20056;-64
2022/06/23 11:13:41;;;;;;;4.15;1.85;;;26.40;91.90;;;;;;5065820;28;20052;-64
2022/06/23 11:16:22;;;;;;;2.28;1.73;;;26.40;90.00;;;;;;5065998;28;20041;-63
2022/06/23 11:19:02;;;;;;;4.38;1.85;;;26.50;92.10;;;;;;5065791;28;20511;-64
2022/06/23 11:22:16;;;;;;;3.33;1.98;;;26.60;90.20;;;;;;5065308;28;20053;-64
2022/06/23 11:25:17;;;;;;;4.90;2.03;;;26.70;81.50;;;;;;5066320;28;20119;-64
2022/06/23 11:27:54;;;;;;;6.03;1.88;;;26.70;84.50;;;;;;5065302;28;20044;-64
2022/06/23 11:30:22;;;;;;;6.65;2.10;;;26.80;86.50;;;;;;5065929;28;20083;-64
2022/06/23 11:33:16;;;;;;;3.47;2.10;;;26.80;85.90;;;;;;5064399;28;20119;-64
2022/06/23 11:36:00;;;;;;;4.20;1.95;;;26.90;83.00;;;;;;5063978;28;20044;-64
2022/06/23 11:38:26;;;;;;;4.60;2.00;;;26.90;84.30;;;;;;5066422;28;20106;-64
2022/06/23 11:41:01;;;;;;;4.45;2.22;;;26.90;87.30;;;;;;5066046;28;20045;-64
2022/06/23 11:43:41;;;;;;;3.13;2.10;;;27.00;88.60;;;;;;5065875;28;20048;-64
2022/06/23 11:46:36;;;;;;;3.60;2.40;;;27.00;86.50;;;;;;5065634;28;20046;-64
2022/06/23 11:49:24;;;;;;;6.03;2.45;;;27.00;85.80;;;;;;5064845;28;20052;-64
2022/06/23 11:52:09;;;;;;;4.55;2.45;;;27.10;89.80;;;;;;5065508;28;20178;-63
2022/06/23 11:54:55;;;;;;;3.92;2.20;;;27.30;90.20;;;;;;5066509;28;20048;-63
2022/06/23 11:58:02;;;;;;;2.90;2.00;;;27.30;90.00;;;;;;5064935;28;20052;-63
2022/06/23 12:01:18;;;;;;;4.43;2.30;;;27.40;90.20;;;;;;5065740;28;20052;-63
2022/06/23 12:03:49;;;;;;;10.75;2.20;;;27.50;88.60;;;;;;5047563;28;20590;-63
2022/06/23 12:06:26;;;;;;;2.72;2.35;;;27.60;88.50;;;;;;5064458;28;20080;-63
2022/06/23 12:08:59;;;;;;;4.38;2.20;;;27.60;88.70;;;;;;5069530;28;20495;-63
2022/06/23 12:11:25;;;;;;;3.03;1.77;;;27.70;85.60;;;;;;5069328;28;20282;-65
2022/06/23 12:13:52;;;;;;;2.28;2.08;;;27.70;85.10;;;;;;5069521;28;20040;-65
2022/06/23 12:16:18;;;;;;;4.95;2.35;;;27.80;85.60;;;;;;5068982;28;20044;-65
2022/06/23 12:18:49;;;;;;;4.60;2.47;;;27.90;85.50;;;;;;5069508;28;20043;-65
2022/06/23 12:21:57;;;;;;;5.20;2.00;;;27.90;84.10;;;;;;5069627;28;20076;-65
2022/06/23 12:24:40;;;;;;;4.57;1.90;;;28.00;83.90;;;;;;5006653;28;20050;-65
2022/06/23 12:27:20;;;;;;;3.05;2.00;;;28.10;83.00;;;;;;5006627;28;20053;-65
2022/06/23 12:30:12;;;;;;;5.07;2.08;;;28.10;78.60;;;;;;5049416;28;20063;-65
2022/06/23 12:33:18;;;;;;;3.30;1.65;;;28.20;78.70;;;;;;5068704;28;20458;-65
2022/06/23 12:35:58;;;;;;;4.97;1.60;;;28.30;78.50;;;;;;5069297;28;20139;-65
2022/06/23 12:38:30;;;;;;;1.58;1.42;;;28.40;76.40;;;;;;5068651;28;20502;-63
2022/06/23 12:41:04;;;;;;;2.95;1.70;;;28.40;76.10;;;;;;5069135;28;20045;-63
2022/06/23 12:43:53;;;;;;;3.47;2.22;;;28.50;75.50;;;;;;5069169;28;20087;-62
2022/06/23 12:46:47;;;;;;;2.70;1.60;;;28.60;75.90;;;;;;5068461;28;20051;-63
2022/06/23 12:49:22;;;;;;;2.72;1.60;;;28.60;72.20;;;;;;5067802;28;20495;-63
2022/06/23 12:52:15;;;;;;;3.15;1.40;;;28.70;72.90;;;;;;5067746;28;20533;-63
2022/06/23 12:54:50;;;;;;;3.95;1.92;;;28.90;68.80;;;;;;5068962;28;20437;-63
2022/06/23 12:57:37;;;;;;;2.80;1.80;;;29.00;70.30;;;;;;5068655;28;20514;-63
2022/06/23 13:00:14;;;;;;;2.75;1.65;;;29.00;68.60;;;;;;5067760;28;20044;-63
2022/06/23 13:02:49;;;;;;;1.42;1.33;;;29.10;69.60;;;;;;5068744;28;20057;-63
2022/06/23 13:05:34;;;;;;;1.98;1.50;;;29.10;68.50;;;;;;5068748;28;20045;-63
2022/06/23 13:08:08;;;;;;;8.10;1.65;;;29.30;71.40;;;;;;5068343;28;20048;-63
2022/06/23 13:10:58;;;;;;;4.05;1.65;;;29.40;67.20;;;;;;5068901;28;20044;-63
2022/06/23 13:13:24;;;;;;;2.38;1.75;;;29.40;64.10;;;;;;5068195;28;20499;-63
2022/06/23 13:15:49;;;;;;;1.83;1.55;;;29.40;66.50;;;;;;5068156;28;20046;-63
2022/06/23 13:18:25;;;;;;;2.88;1.30;;;29.60;67.80;;;;;;5067788;28;20048;-63
2022/06/23 13:21:00;;;;;;;2.53;1.67;;;29.60;64.10;;;;;;5067165;28;20487;-63
2022/06/23 13:23:44;;;;;;;3.53;1.67;;;29.70;64.00;;;;;;5067651;28;20053;-63
2022/06/23 13:26:30;;;;;;;1.33;1.23;;;29.80;64.60;;;;;;5067975;28;20411;-63
2022/06/23 13:29:13;;;;;;;2.78;1.90;;;29.80;64.00;;;;;;5067692;28;20048;-63
2022/06/23 13:31:57;;;;;;;2.22;1.60;;;30.00;63.70;;;;;;5068415;28;20067;-63
2022/06/23 13:34:30;;;;;;;1.27;1.17;;;30.00;63.70;;;;;;5067869;28;20627;-63
2022/06/23 13:37:25;;;;;;;3.17;1.60;;;30.00;62.60;;;;;;5068183;28;20452;-63
2022/06/23 13:40:15;;;;;;;3.08;1.50;;;30.20;59.90;;;;;;5067919;28;20095;-63
2022/06/23 13:42:59;;;;;;;3.25;1.50;;;30.20;62.00;;;;;;5067240;28;20534;-63
2022/06/23 13:45:36;;;;;;;2.97;1.70;;;30.30;61.10;;;;;;5068274;28;20474;-63
2022/06/23 13:48:11;;;;;;;8.57;1.40;;;30.40;62.40;;;;;;5067417;28;20086;-63
2022/06/23 13:50:50;;;;;;;1.85;1.75;;;30.50;59.50;;;;;;5068014;28;20147;-63
2022/06/23 13:53:32;;;;;;;2.88;1.48;;;30.50;59.30;;;;;;5067777;28;20318;-63
2022/06/23 13:56:03;;;;;;;2.78;1.67;;;30.60;59.80;;;;;;5066978;28;20045;-63
2022/06/23 13:58:41;;;;;;;;;;;30.70;60.30;;;;;;5068553;28;20127;-63
2022/06/23 14:01:17;;;;;;;5.55;1.90;;;30.70;58.30;;;;;;5065895;28;19995;-63
2022/06/23 14:03:53;;;;;;;4.10;1.52;;;30.70;58.40;;;;;;5066793;28;20052;-63